sensor_id;sensor_type;location;lat;lon;timestamp;pressure;altitude;pressure_sealevel;temperature;humidity
12991;BME280;6560;57.692;11.958;2022-10-16T00:01:08;100063.28;;;23.66;100.00
12991;BME280;6560;57.692;11.958;2022-10-16T00:03:34;100048.63;;;24.21;100.00
12991;BME280;6560;57.692;11.958;2022-10-16T00:06:00;100064.63;;;24.11;100.00
12991;BME280;6560;57.692;11.958;2022-10-16T00:08:26;100074.56;;;23.39;100.00
12991;BME280;6560;57.692;11.958;2022-10-16T00:10:51;100073.50;;;23.27;100.00
12991;BME280;6560;57.692;11.958;2022-10-16T00:13:17;100076.63;;;21.92;100.00
12991;BME280;6560;57.692;11.958;2022-10-16T00:15:44;100082.63;;;22.23;100.00
12991;BME280;6560;57.692;11.958;2022-10-16T00:18:11;100073.38;;;21.19;100.00
12991;BME280;6560;57.692;11.958;2022-10-16T00:20:37;100075.63;;;21.02;100.00
12991;BME280;6560;57.692;11.958;2022-10-16T00:23:03;100101.47;;;20.99;100.00
12991;BME280;6560;57.692;11.958;2022-10-16T00:25:30;100103.81;;;21.23;100.00
12991;BME280;6560;57.692;11.958;2022-10-16T00:27:58;100104.28;;;21.44;100.00
12991;BME280;6560;57.692;11.958;2022-10-16T00:30:24;100109.34;;;21.30;100.00
12991;BME280;6560;57.692;11.958;2022-10-16T00:32:52;100104.53;;;21.98;100.00
12991;BME280;6560;57.692;11.958;2022-10-16T00:35:17;100051.19;;;21.28;100.00
12991;BME280;6560;57.692;11.958;2022-10-16T00:37:42;100103.75;;;21.62;100.00
12991;BME280;6560;57.692;11.958;2022-10-16T00:40:09;100118.47;;;21.82;100.00
12991;BME280;6560;57.692;11.958;2022-10-16T00:42:34;100119.88;;;22.05;100.00
12991;BME280;6560;57.692;11.958;2022-10-16T00:45:00;100129.06;;;20.26;100.00
12991;BME280;6560;57.692;11.958;2022-10-16T00:47:32;100127.03;;;20.85;100.00
12991;BME280;6560;57.692;11.958;2022-10-16T00:50:08;100069.19;;;19.88;100.00
12991;BME280;6560;57.692;11.958;2022-10-16T00:52:35;100089.91;;;21.03;100.00
12991;BME280;6560;57.692;11.958;2022-10-16T00:55:03;100096.44;;;21.55;100.00
12991;BME280;6560;57.692;11.958;2022-10-16T00:57:30;100118.78;;;20.77;100.00
12991;BME280;6560;57.692;11.958;2022-10-16T00:59:56;100132.25;;;21.16;100.00
12991;BME280;6560;57.692;11.958;2022-10-16T01:02:22;100089.22;;;20.73;100.00
12991;BME280;6560;57.692;11.958;2022-10-16T01:04:50;100127.28;;;20.59;100.00
12991;BME280;6560;57.692;11.958;2022-10-16T01:07:46;100128.50;;;21.48;100.00
12991;BME280;6560;57.692;11.958;2022-10-16T01:10:39;100128.81;;;21.62;100.00
12991;BME280;6560;57.692;11.958;2022-10-16T01:13:32;100144.22;;;21.30;100.00
12991;BME280;6560;57.692;11.958;2022-10-16T01:16:39;100143.22;;;21.25;100.00
12991;BME280;6560;57.692;11.958;2022-10-16T01:19:19;100139.81;;;22.18;100.00
12991;BME280;6560;57.692;11.958;2022-10-16T01:21:47;100097.16;;;21.44;100.00
12991;BME280;6560;57.692;11.958;2022-10-16T01:24:38;100152.38;;;20.99;100.00
12991;BME280;6560;57.692;11.958;2022-10-16T01:30:07;100138.25;;;21.06;100.00
12991;BME280;6560;57.692;11.958;2022-10-16T01:35:24;100149.03;;;20.37;100.00
12991;BME280;6560;57.692;11.958;2022-10-16T01:38:21;100154.94;;;20.58;100.00
12991;BME280;6560;57.692;11.958;2022-10-16T01:40:55;100143.78;;;21.51;100.00
12991;BME280;6560;57.692;11.958;2022-10-16T01:46:03;100154.44;;;21.11;100.00
12991;BME280;6560;57.692;11.958;2022-10-16T01:48:29;100162.16;;;20.28;100.00
12991;BME280;6560;57.692;11.958;2022-10-16T01:51:14;100051.63;;;19.66;100.00
12991;BME280;6560;57.692;11.958;2022-10-16T01:53:41;100096.31;;;19.70;100.00
12991;BME280;6560;57.692;11.958;2022-10-16T01:56:10;100136.09;;;20.54;100.00
12991;BME280;6560;57.692;11.958;2022-10-16T01:58:42;100154.19;;;20.31;100.00
12991;BME280;6560;57.692;11.958;2022-10-16T02:01:11;100144.88;;;20.17;100.00
12991;BME280;6560;57.692;11.958;2022-10-16T02:03:40;100158.56;;;20.96;100.00
12991;BME280;6560;57.692;11.958;2022-10-16T02:06:08;100164.59;;;20.52;100.00
12991;BME280;6560;57.692;11.958;2022-10-16T02:08:34;100159.66;;;20.34;100.00
12991;BME280;6560;57.692;11.958;2022-10-16T02:11:00;100174.88;;;19.74;100.00
12991;BME280;6560;57.692;11.958;2022-10-16T02:13:37;100162.03;;;21.69;100.00
12991;BME280;6560;57.692;11.958;2022-10-16T02:16:04;100108.31;;;23.15;100.00
12991;BME280;6560;57.692;11.958;2022-10-16T02:18:29;100166.69;;;23.22;100.00
12991;BME280;6560;57.692;11.958;2022-10-16T02:21:02;100155.97;;;22.21;100.00
12991;BME280;6560;57.692;11.958;2022-10-16T02:23:48;100164.28;;;23.41;100.00
12991;BME280;6560;57.692;11.958;2022-10-16T02:26:28;100130.31;;;24.19;100.00
12991;BME280;6560;57.692;11.958;2022-10-16T02:29:00;100170.03;;;23.66;100.00
12991;BME280;6560;57.692;11.958;2022-10-16T02:31:32;100102.78;;;23.05;100.00
12991;BME280;6560;57.692;11.958;2022-10-16T02:34:00;100194.31;;;23.69;100.00
12991;BME280;6560;57.692;11.958;2022-10-16T02:36:27;100178.66;;;23.43;100.00
12991;BME280;6560;57.692;11.958;2022-10-16T02:38:52;100178.78;;;23.48;100.00
12991;BME280;6560;57.692;11.958;2022-10-16T02:41:21;100104.63;;;23.08;100.00
12991;BME280;6560;57.692;11.958;2022-10-16T02:43:46;100101.97;;;23.10;100.00
12991;BME280;6560;57.692;11.958;2022-10-16T02:46:19;100108.50;;;23.28;100.00
12991;BME280;6560;57.692;11.958;2022-10-16T02:48:44;100140.88;;;23.34;100.00
12991;BME280;6560;57.692;11.958;2022-10-16T02:51:10;100102.56;;;22.38;100.00
12991;BME280;6560;57.692;11.958;2022-10-16T02:53:35;100147.78;;;23.17;100.00
12991;BME280;6560;57.692;11.958;2022-10-16T02:56:01;100154.47;;;23.45;100.00
12991;BME280;6560;57.692;11.958;2022-10-16T02:58:26;100168.91;;;23.49;100.00
12991;BME280;6560;57.692;11.958;2022-10-16T03:00:52;100154.19;;;23.89;100.00
12991;BME280;6560;57.692;11.958;2022-10-16T03:03:17;100099.97;;;22.96;100.00
12991;BME280;6560;57.692;11.958;2022-10-16T03:05:44;100161.81;;;23.55;100.00
12991;BME280;6560;57.692;11.958;2022-10-16T03:08:11;100181.31;;;23.40;100.00
12991;BME280;6560;57.692;11.958;2022-10-16T03:10:37;100182.38;;;23.49;100.00
12991;BME280;6560;57.692;11.958;2022-10-16T03:13:02;100184.69;;;23.88;100.00
12991;BME280;6560;57.692;11.958;2022-10-16T03:15:28;100157.94;;;23.38;100.00
12991;BME280;6560;57.692;11.958;2022-10-16T03:17:54;100183.59;;;23.73;100.00
12991;BME280;6560;57.692;11.958;2022-10-16T03:20:20;100170.88;;;23.63;100.00
12991;BME280;6560;57.692;11.958;2022-10-16T03:22:46;100133.75;;;23.36;100.00
12991;BME280;6560;57.692;11.958;2022-10-16T03:25:11;100180.13;;;23.83;100.00
12991;BME280;6560;57.692;11.958;2022-10-16T03:27:37;100173.81;;;23.80;100.00
12991;BME280;6560;57.692;11.958;2022-10-16T03:30:02;100151.78;;;23.45;100.00
12991;BME280;6560;57.692;11.958;2022-10-16T03:32:28;100169.03;;;23.58;100.00
12991;BME280;6560;57.692;11.958;2022-10-16T03:34:53;100068.56;;;22.40;100.00
12991;BME280;6560;57.692;11.958;2022-10-16T03:37:21;100093.09;;;22.61;100.00
12991;BME280;6560;57.692;11.958;2022-10-16T03:39:49;100128.38;;;22.79;100.00
12991;BME280;6560;57.692;11.958;2022-10-16T03:42:14;100173.63;;;23.08;100.00
12991;BME280;6560;57.692;11.958;2022-10-16T03:44:40;100151.03;;;22.95;100.00
12991;BME280;6560;57.692;11.958;2022-10-16T03:47:05;100184.50;;;23.74;100.00
12991;BME280;6560;57.692;11.958;2022-10-16T03:49:31;100170.84;;;23.01;100.00
12991;BME280;6560;57.692;11.958;2022-10-16T03:51:56;100124.19;;;22.47;100.00
12991;BME280;6560;57.692;11.958;2022-10-16T03:54:22;100102.88;;;22.06;100.00
12991;BME280;6560;57.692;11.958;2022-10-16T03:56:47;100146.97;;;22.17;100.00
12991;BME280;6560;57.692;11.958;2022-10-16T03:59:13;100167.03;;;22.38;100.00
12991;BME280;6560;57.692;11.958;2022-10-16T04:01:38;100176.13;;;22.46;100.00
12991;BME280;6560;57.692;11.958;2022-10-16T04:04:04;100164.69;;;22.56;100.00
12991;BME280;6560;57.692;11.958;2022-10-16T04:06:30;100177.44;;;22.69;100.00
12991;BME280;6560;57.692;11.958;2022-10-16T04:08:55;100197.59;;;22.46;100.00
12991;BME280;6560;57.692;11.958;2022-10-16T04:11:21;100181.16;;;22.27;100.00
12991;BME280;6560;57.692;11.958;2022-10-16T04:13:50;100175.28;;;22.02;100.00
12991;BME280;6560;57.692;11.958;2022-10-16T04:16:15;100175.22;;;22.45;100.00
12991;BME280;6560;57.692;11.958;2022-10-16T04:18:41;100132.88;;;22.31;100.00
12991;BME280;6560;57.692;11.958;2022-10-16T04:21:07;100177.34;;;22.64;100.00
12991;BME280;6560;57.692;11.958;2022-10-16T04:23:32;100077.72;;;22.01;100.00
12991;BME280;6560;57.692;11.958;2022-10-16T04:25:58;100179.19;;;22.67;100.00
12991;BME280;6560;57.692;11.958;2022-10-16T04:28:25;100135.06;;;22.53;100.00
12991;BME280;6560;57.692;11.958;2022-10-16T04:30:50;100155.88;;;22.66;100.00
12991;BME280;6560;57.692;11.958;2022-10-16T04:33:15;100168.97;;;22.45;100.00
12991;BME280;6560;57.692;11.958;2022-10-16T04:35:41;100182.31;;;22.42;100.00
12991;BME280;6560;57.692;11.958;2022-10-16T04:38:06;100180.59;;;22.44;100.00
12991;BME280;6560;57.692;11.958;2022-10-16T04:40:32;100100.06;;;21.99;100.00
12991;BME280;6560;57.692;11.958;2022-10-16T04:42:58;100080.31;;;21.53;100.00
12991;BME280;6560;57.692;11.958;2022-10-16T04:45:24;100108.03;;;21.54;100.00
12991;BME280;6560;57.692;11.958;2022-10-16T04:47:50;100085.69;;;21.53;100.00
12991;BME280;6560;57.692;11.958;2022-10-16T04:50:15;100085.69;;;21.53;100.00
12991;BME280;6560;57.692;11.958;2022-10-16T04:52:41;100093.72;;;21.52;100.00
12991;BME280;6560;57.692;11.958;2022-10-16T04:55:07;100175.81;;;22.29;100.00
12991;BME280;6560;57.692;11.958;2022-10-16T04:57:32;100154.78;;;21.24;100.00
12991;BME280;6560;57.692;11.958;2022-10-16T04:59:58;100188.53;;;21.54;100.00
12991;BME280;6560;57.692;11.958;2022-10-16T05:02:24;100129.88;;;20.92;100.00
12991;BME280;6560;57.692;11.958;2022-10-16T05:04:50;100176.44;;;21.32;100.00
12991;BME280;6560;57.692;11.958;2022-10-16T05:07:15;100166.41;;;21.64;100.00
12991;BME280;6560;57.692;11.958;2022-10-16T05:09:41;100167.59;;;21.78;100.00
12991;BME280;6560;57.692;11.958;2022-10-16T05:12:06;100169.59;;;21.88;100.00
12991;BME280;6560;57.692;11.958;2022-10-16T05:14:32;100151.88;;;21.54;100.00
12991;BME280;6560;57.692;11.958;2022-10-16T05:16:59;100105.44;;;21.16;100.00
12991;BME280;6560;57.692;11.958;2022-10-16T05:19:25;100113.88;;;21.33;100.00
12991;BME280;6560;57.692;11.958;2022-10-16T05:21:51;100190.25;;;21.14;100.00
12991;BME280;6560;57.692;11.958;2022-10-16T05:24:16;100104.59;;;20.81;100.00
12991;BME280;6560;57.692;11.958;2022-10-16T05:26:41;100174.19;;;21.94;100.00
12991;BME280;6560;57.692;11.958;2022-10-16T05:29:07;100066.56;;;21.36;100.00
12991;BME280;6560;57.692;11.958;2022-10-16T05:31:32;100166.94;;;21.47;100.00
12991;BME280;6560;57.692;11.958;2022-10-16T05:34:01;100136.25;;;20.97;100.00
12991;BME280;6560;57.692;11.958;2022-10-16T05:36:27;100054.50;;;20.07;100.00
12991;BME280;6560;57.692;11.958;2022-10-16T05:38:53;100176.53;;;20.64;100.00
12991;BME280;6560;57.692;11.958;2022-10-16T05:41:19;100112.22;;;21.02;100.00
12991;BME280;6560;57.692;11.958;2022-10-16T05:43:48;100182.50;;;21.25;100.00
12991;BME280;6560;57.692;11.958;2022-10-16T05:46:14;100171.94;;;21.31;100.00
12991;BME280;6560;57.692;11.958;2022-10-16T05:48:40;100063.47;;;20.79;100.00
12991;BME280;6560;57.692;11.958;2022-10-16T05:51:07;100156.84;;;22.18;100.00
12991;BME280;6560;57.692;11.958;2022-10-16T05:53:35;100096.88;;;22.21;100.00
12991;BME280;6560;57.692;11.958;2022-10-16T05:56:01;100163.19;;;23.27;100.00
12991;BME280;6560;57.692;11.958;2022-10-16T05:58:34;100081.75;;;22.79;100.00
12991;BME280;6560;57.692;11.958;2022-10-16T06:01:03;100134.50;;;23.28;100.00
12991;BME280;6560;57.692;11.958;2022-10-16T06:03:29;100175.66;;;23.24;100.00
12991;BME280;6560;57.692;11.958;2022-10-16T06:05:55;100122.19;;;23.47;100.00
12991;BME280;6560;57.692;11.958;2022-10-16T06:08:21;100153.25;;;23.87;100.00
12991;BME280;6560;57.692;11.958;2022-10-16T06:10:48;100159.41;;;23.76;100.00
12991;BME280;6560;57.692;11.958;2022-10-16T06:13:14;100106.78;;;23.33;100.00
12991;BME280;6560;57.692;11.958;2022-10-16T06:15:41;100166.97;;;24.08;100.00
12991;BME280;6560;57.692;11.958;2022-10-16T06:18:10;100168.16;;;24.31;100.00
12991;BME280;6560;57.692;11.958;2022-10-16T06:20:36;100152.06;;;24.37;100.00
12991;BME280;6560;57.692;11.958;2022-10-16T06:23:02;100157.59;;;24.52;100.00
12991;BME280;6560;57.692;11.958;2022-10-16T06:25:30;100117.00;;;25.52;100.00
12991;BME280;6560;57.692;11.958;2022-10-16T06:27:55;100152.19;;;24.48;100.00
12991;BME280;6560;57.692;11.958;2022-10-16T06:30:21;100160.78;;;24.18;100.00
12991;BME280;6560;57.692;11.958;2022-10-16T06:32:46;100157.34;;;24.30;100.00
12991;BME280;6560;57.692;11.958;2022-10-16T06:35:12;100107.69;;;24.05;100.00
12991;BME280;6560;57.692;11.958;2022-10-16T06:37:37;100062.81;;;24.07;100.00
12991;BME280;6560;57.692;11.958;2022-10-16T06:40:03;100153.06;;;23.10;100.00
12991;BME280;6560;57.692;11.958;2022-10-16T06:42:29;100181.75;;;23.09;100.00
12991;BME280;6560;57.692;11.958;2022-10-16T06:44:55;100182.69;;;23.73;100.00
12991;BME280;6560;57.692;11.958;2022-10-16T06:47:20;100182.72;;;23.74;100.00
12991;BME280;6560;57.692;11.958;2022-10-16T06:49:45;100113.81;;;23.22;100.00
12991;BME280;6560;57.692;11.958;2022-10-16T06:52:11;100168.19;;;23.62;100.00
12991;BME280;6560;57.692;11.958;2022-10-16T06:54:36;100164.16;;;23.96;100.00
12991;BME280;6560;57.692;11.958;2022-10-16T06:57:02;100161.75;;;23.49;100.00
12991;BME280;6560;57.692;11.958;2022-10-16T06:59:27;100154.38;;;23.39;100.00
12991;BME280;6560;57.692;11.958;2022-10-16T07:01:59;100157.44;;;23.65;100.00
12991;BME280;6560;57.692;11.958;2022-10-16T07:04:24;100165.63;;;23.72;100.00
12991;BME280;6560;57.692;11.958;2022-10-16T07:06:50;100156.63;;;23.09;100.00
12991;BME280;6560;57.692;11.958;2022-10-16T07:09:17;100146.25;;;22.76;100.00
12991;BME280;6560;57.692;11.958;2022-10-16T07:11:42;100147.88;;;22.19;100.00
12991;BME280;6560;57.692;11.958;2022-10-16T07:14:16;100135.03;;;22.03;100.00
12991;BME280;6560;57.692;11.958;2022-10-16T07:16:42;100146.53;;;22.43;100.00
12991;BME280;6560;57.692;11.958;2022-10-16T07:19:07;100135.72;;;22.40;100.00
12991;BME280;6560;57.692;11.958;2022-10-16T07:21:34;100170.78;;;22.47;100.00
12991;BME280;6560;57.692;11.958;2022-10-16T07:24:05;100159.53;;;23.87;100.00
12991;BME280;6560;57.692;11.958;2022-10-16T07:26:32;100111.13;;;23.92;100.00
12991;BME280;6560;57.692;11.958;2022-10-16T07:28:58;100111.66;;;24.40;100.00
12991;BME280;6560;57.692;11.958;2022-10-16T07:31:25;100125.84;;;24.19;100.00
12991;BME280;6560;57.692;11.958;2022-10-16T07:33:51;100151.03;;;24.26;100.00
12991;BME280;6560;57.692;11.958;2022-10-16T07:36:18;100159.09;;;24.21;100.00
12991;BME280;6560;57.692;11.958;2022-10-16T07:38:45;100148.13;;;24.97;100.00
12991;BME280;6560;57.692;11.958;2022-10-16T07:41:14;100162.19;;;24.64;100.00
12991;BME280;6560;57.692;11.958;2022-10-16T07:43:40;100154.81;;;24.45;100.00
12991;BME280;6560;57.692;11.958;2022-10-16T07:46:05;100125.56;;;23.30;100.00
12991;BME280;6560;57.692;11.958;2022-10-16T07:48:33;100154.94;;;23.15;100.00
12991;BME280;6560;57.692;11.958;2022-10-16T07:51:00;100135.28;;;23.21;100.00
12991;BME280;6560;57.692;11.958;2022-10-16T07:53:26;100118.53;;;23.40;100.00
12991;BME280;6560;57.692;11.958;2022-10-16T07:55:56;100156.34;;;25.12;100.00
12991;BME280;6560;57.692;11.958;2022-10-16T07:58:22;100074.84;;;24.44;100.00
12991;BME280;6560;57.692;11.958;2022-10-16T08:00:48;100156.91;;;24.76;100.00
12991;BME280;6560;57.692;11.958;2022-10-16T08:03:13;100039.81;;;24.41;100.00
12991;BME280;6560;57.692;11.958;2022-10-16T08:05:39;100105.03;;;24.11;100.00
12991;BME280;6560;57.692;11.958;2022-10-16T08:08:04;100096.06;;;24.10;100.00
12991;BME280;6560;57.692;11.958;2022-10-16T08:10:29;100049.84;;;23.68;100.00
12991;BME280;6560;57.692;11.958;2022-10-16T08:12:56;100082.78;;;24.26;100.00
12991;BME280;6560;57.692;11.958;2022-10-16T08:15:22;100053.44;;;24.59;100.00
12991;BME280;6560;57.692;11.958;2022-10-16T08:17:58;100151.53;;;24.78;100.00
12991;BME280;6560;57.692;11.958;2022-10-16T08:20:25;100161.16;;;24.47;100.00
12991;BME280;6560;57.692;11.958;2022-10-16T08:22:51;100138.19;;;24.04;100.00
12991;BME280;6560;57.692;11.958;2022-10-16T08:25:16;100157.75;;;24.68;100.00
12991;BME280;6560;57.692;11.958;2022-10-16T08:27:42;100162.06;;;24.47;100.00
12991;BME280;6560;57.692;11.958;2022-10-16T08:30:08;100158.22;;;25.24;100.00
12991;BME280;6560;57.692;11.958;2022-10-16T08:32:33;100160.03;;;25.29;100.00
12991;BME280;6560;57.692;11.958;2022-10-16T08:34:59;100142.13;;;25.42;100.00
12991;BME280;6560;57.692;11.958;2022-10-16T08:37:24;100152.06;;;25.54;100.00
12991;BME280;6560;57.692;11.958;2022-10-16T08:39:50;100144.63;;;25.10;100.00
12991;BME280;6560;57.692;11.958;2022-10-16T08:42:40;100128.06;;;24.66;100.00
12991;BME280;6560;57.692;11.958;2022-10-16T08:45:15;100163.81;;;24.45;100.00
12991;BME280;6560;57.692;11.958;2022-10-16T08:48:39;100175.19;;;23.49;100.00
12991;BME280;6560;57.692;11.958;2022-10-16T08:50:44;100168.03;;;22.94;100.00
12991;BME280;6560;57.692;11.958;2022-10-16T08:53:26;100178.16;;;23.12;100.00
12991;BME280;6560;57.692;11.958;2022-10-16T08:55:53;100188.63;;;23.48;100.00
12991;BME280;6560;57.692;11.958;2022-10-16T08:58:23;100176.47;;;23.78;100.00
12991;BME280;6560;57.692;11.958;2022-10-16T09:00:57;100141.56;;;24.68;100.00
12991;BME280;6560;57.692;11.958;2022-10-16T09:06:21;100167.31;;;25.41;100.00
12991;BME280;6560;57.692;11.958;2022-10-16T09:19:40;100110.06;;;24.60;100.00
12991;BME280;6560;57.692;11.958;2022-10-16T09:22:17;100152.41;;;24.74;100.00
12991;BME280;6560;57.692;11.958;2022-10-16T09:24:43;100198.66;;;25.19;100.00
12991;BME280;6560;57.692;11.958;2022-10-16T09:27:14;100146.50;;;25.19;100.00
12991;BME280;6560;57.692;11.958;2022-10-16T09:29:40;100172.56;;;25.21;100.00
12991;BME280;6560;57.692;11.958;2022-10-16T09:32:18;100121.22;;;25.06;100.00
12991;BME280;6560;57.692;11.958;2022-10-16T09:34:50;100169.03;;;25.28;100.00
12991;BME280;6560;57.692;11.958;2022-10-16T09:37:19;100168.31;;;25.57;100.00
12991;BME280;6560;57.692;11.958;2022-10-16T09:39:54;100163.44;;;24.99;100.00
12991;BME280;6560;57.692;11.958;2022-10-16T09:42:23;100133.34;;;24.52;100.00
12991;BME280;6560;57.692;11.958;2022-10-16T09:44:51;100173.59;;;25.41;100.00
12991;BME280;6560;57.692;11.958;2022-10-16T09:47:21;100174.84;;;25.97;100.00
12991;BME280;6560;57.692;11.958;2022-10-16T09:50:05;100152.22;;;25.70;100.00
12991;BME280;6560;57.692;11.958;2022-10-16T09:52:32;100162.25;;;26.09;100.00
12991;BME280;6560;57.692;11.958;2022-10-16T09:55:12;100173.69;;;25.57;100.00
12991;BME280;6560;57.692;11.958;2022-10-16T09:57:49;100163.00;;;25.69;100.00
12991;BME280;6560;57.692;11.958;2022-10-16T10:00:16;100162.31;;;23.96;100.00
12991;BME280;6560;57.692;11.958;2022-10-16T10:02:41;100129.44;;;24.20;100.00
12991;BME280;6560;57.692;11.958;2022-10-16T10:05:19;100159.69;;;24.88;100.00
12991;BME280;6560;57.692;11.958;2022-10-16T10:07:54;100159.19;;;24.35;100.00
12991;BME280;6560;57.692;11.958;2022-10-16T10:10:23;100105.56;;;23.75;100.00
12991;BME280;6560;57.692;11.958;2022-10-16T10:12:49;100164.97;;;26.12;100.00
12991;BME280;6560;57.692;11.958;2022-10-16T10:15:15;100156.53;;;25.42;100.00
12991;BME280;6560;57.692;11.958;2022-10-16T10:17:57;100126.59;;;25.05;100.00
12991;BME280;6560;57.692;11.958;2022-10-16T10:20:31;100128.78;;;25.68;100.00
12991;BME280;6560;57.692;11.958;2022-10-16T10:23:00;100144.13;;;25.81;100.00
12991;BME280;6560;57.692;11.958;2022-10-16T10:28:21;100144.28;;;26.24;100.00
12991;BME280;6560;57.692;11.958;2022-10-16T10:31:03;100139.88;;;26.83;100.00
12991;BME280;6560;57.692;11.958;2022-10-16T10:36:34;100151.47;;;26.11;100.00
12991;BME280;6560;57.692;11.958;2022-10-16T10:39:13;100158.69;;;26.23;100.00
12991;BME280;6560;57.692;11.958;2022-10-16T10:55:40;100174.38;;;23.55;100.00
12991;BME280;6560;57.692;11.958;2022-10-16T11:01:15;100087.44;;;23.63;100.00
12991;BME280;6560;57.692;11.958;2022-10-16T11:03:57;100160.13;;;24.34;100.00
12991;BME280;6560;57.692;11.958;2022-10-16T11:06:33;100148.59;;;24.50;100.00
12991;BME280;6560;57.692;11.958;2022-10-16T11:09:23;100140.22;;;24.23;100.00
12991;BME280;6560;57.692;11.958;2022-10-16T11:12:39;100116.94;;;23.53;100.00
12991;BME280;6560;57.692;11.958;2022-10-16T11:17:28;100141.47;;;25.86;100.00
12991;BME280;6560;57.692;11.958;2022-10-16T11:19:58;100140.13;;;25.09;100.00
12991;BME280;6560;57.692;11.958;2022-10-16T11:22:30;100123.06;;;25.15;100.00
12991;BME280;6560;57.692;11.958;2022-10-16T11:27:38;100139.31;;;25.22;100.00
12991;BME280;6560;57.692;11.958;2022-10-16T11:30:14;100124.06;;;25.26;100.00
12991;BME280;6560;57.692;11.958;2022-10-16T11:35:44;100115.44;;;26.15;100.00
12991;BME280;6560;57.692;11.958;2022-10-16T11:38:29;100108.25;;;26.18;100.00
12991;BME280;6560;57.692;11.958;2022-10-16T11:41:00;100119.84;;;25.81;100.00
12991;BME280;6560;57.692;11.958;2022-10-16T11:46:19;100106.94;;;25.24;100.00
12991;BME280;6560;57.692;11.958;2022-10-16T11:49:12;100130.16;;;24.99;100.00
12991;BME280;6560;57.692;11.958;2022-10-16T11:52:19;100133.34;;;24.52;100.00
12991;BME280;6560;57.692;11.958;2022-10-16T11:57:24;100121.75;;;24.64;100.00
12991;BME280;6560;57.692;11.958;2022-10-16T12:00:22;100240.44;;;24.67;100.00
12991;BME280;6560;57.692;11.958;2022-10-16T12:08:16;100222.28;;;21.83;100.00
12991;BME280;6560;57.692;11.958;2022-10-16T12:10:47;100230.13;;;21.74;100.00
12991;BME280;6560;57.692;11.958;2022-10-16T12:13:37;100239.06;;;22.13;100.00
12991;BME280;6560;57.692;11.958;2022-10-16T12:18:39;100209.69;;;21.79;100.00
12991;BME280;6560;57.692;11.958;2022-10-16T12:21:05;100229.38;;;21.81;100.00
12991;BME280;6560;57.692;11.958;2022-10-16T12:23:55;100224.28;;;21.53;100.00
12991;BME280;6560;57.692;11.958;2022-10-16T12:26:37;100193.84;;;21.13;100.00
12991;BME280;6560;57.692;11.958;2022-10-16T12:31:53;100203.78;;;21.56;100.00
12991;BME280;6560;57.692;11.958;2022-10-16T12:34:41;100197.22;;;21.82;100.00
12991;BME280;6560;57.692;11.958;2022-10-16T12:37:20;100197.03;;;22.62;100.00
12991;BME280;6560;57.692;11.958;2022-10-16T12:39:48;100209.69;;;23.20;100.00
12991;BME280;6560;57.692;11.958;2022-10-16T12:44:54;100171.50;;;22.87;100.00
12991;BME280;6560;57.692;11.958;2022-10-16T12:49:53;100172.03;;;23.20;100.00
12991;BME280;6560;57.692;11.958;2022-10-16T12:52:37;100154.34;;;23.37;100.00
12991;BME280;6560;57.692;11.958;2022-10-16T12:55:05;100213.25;;;23.78;100.00
12991;BME280;6560;57.692;11.958;2022-10-16T13:00:44;100227.09;;;23.43;100.00
12991;BME280;6560;57.692;11.958;2022-10-16T13:03:25;100239.06;;;23.07;100.00
12991;BME280;6560;57.692;11.958;2022-10-16T13:06:29;100224.28;;;22.82;100.00
12991;BME280;6560;57.692;11.958;2022-10-16T13:11:59;100253.13;;;22.92;100.00
12991;BME280;6560;57.692;11.958;2022-10-16T13:14:55;100241.41;;;22.87;100.00
12991;BME280;6560;57.692;11.958;2022-10-16T13:17:45;100262.13;;;22.94;100.00
12991;BME280;6560;57.692;11.958;2022-10-16T13:26:28;100291.41;;;22.77;100.00
12991;BME280;6560;57.692;11.958;2022-10-16T13:29:00;100297.00;;;22.46;100.00
12991;BME280;6560;57.692;11.958;2022-10-16T13:31:27;100262.25;;;22.53;100.00
12991;BME280;6560;57.692;11.958;2022-10-16T13:33:55;100319.25;;;22.37;100.00
12991;BME280;6560;57.692;11.958;2022-10-16T13:36:42;100330.44;;;23.03;100.00
12991;BME280;6560;57.692;11.958;2022-10-16T13:39:40;100320.13;;;22.80;100.00
12991;BME280;6560;57.692;11.958;2022-10-16T13:42:10;100327.19;;;22.75;100.00
12991;BME280;6560;57.692;11.958;2022-10-16T13:44:45;100335.41;;;22.40;100.00
12991;BME280;6560;57.692;11.958;2022-10-16T13:47:25;100347.97;;;22.41;100.00
12991;BME280;6560;57.692;11.958;2022-10-16T13:50:06;100339.28;;;22.12;100.00
12991;BME280;6560;57.692;11.958;2022-10-16T13:52:32;100358.22;;;22.60;100.00
12991;BME280;6560;57.692;11.958;2022-10-16T13:54:57;100358.88;;;22.49;100.00
12991;BME280;6560;57.692;11.958;2022-10-16T13:57:24;100343.81;;;22.15;100.00
12991;BME280;6560;57.692;11.958;2022-10-16T13:59:50;100301.66;;;21.73;100.00
12991;BME280;6560;57.692;11.958;2022-10-16T14:02:27;100362.81;;;21.86;100.00
12991;BME280;6560;57.692;11.958;2022-10-16T14:04:55;100303.19;;;21.98;100.00
12991;BME280;6560;57.692;11.958;2022-10-16T14:07:24;100348.91;;;21.67;100.00
12991;BME280;6560;57.692;11.958;2022-10-16T14:09:52;100377.38;;;24.26;100.00
12991;BME280;6560;57.692;11.958;2022-10-16T14:12:18;100370.22;;;24.28;100.00
12991;BME280;6560;57.692;11.958;2022-10-16T14:14:45;100362.09;;;24.25;100.00
12991;BME280;6560;57.692;11.958;2022-10-16T14:17:38;100397.34;;;24.40;100.00
12991;BME280;6560;57.692;11.958;2022-10-16T14:20:14;100380.28;;;23.33;100.00
12991;BME280;6560;57.692;11.958;2022-10-16T14:22:41;100380.88;;;23.65;100.00